Time,TemperatureF,DewpointF,PressureIn,WindDirection,WindDirectionDegrees,WindSpeedMPH,WindSpeedGustMPH,Humidity,HourlyPrecipIn,Conditions,Clouds,dailyrainin,SolarRadiationWatts/m^2,SoftwareType,DateUTC
2015-05-29 00:01:00,77.9,29.6,29.74,WSW,258,0.0,0.0,17,0.00,,CLR,0.00,0.00,VWS V14.00,2015-05-29 07:01:00,
2015-05-29 00:06:00,77.9,29.6,29.74,WSW,258,0.0,0.0,17,0.00,,CLR,0.00,0.00,VWS V14.00,2015-05-29 07:06:00,
2015-05-29 00:11:00,78.1,28.3,29.74,WSW,258,0.0,0.0,16,0.00,,CLR,0.00,0.00,VWS V14.00,2015-05-29 07:11:00,
2015-05-29 00:16:00,77.9,28.1,29.74,WSW,258,0.0,0.0,16,0.00,,CLR,0.00,0.00,VWS V14.00,2015-05-29 07:16:00,
2015-05-29 00:21:00,77.2,30.5,29.74,WSW,258,0.0,0.0,18,0.00,,CLR,0.00,0.00,VWS V14.00,2015-05-29 07:21:00,
2015-05-29 00:26:00,77.6,27.9,29.74,WSW,258,0.0,0.0,16,0.00,,CLR,0.00,0.00,VWS V14.00,2015-05-29 07:26:00,
2015-05-29 00:31:00,77.4,30.6,29.74,WSW,258,0.0,0.0,18,0.00,,CLR,0.00,0.00,VWS V14.00,2015-05-29 07:31:00,
2015-05-29 00:42:00,76.5,27.0,29.74,WSW,258,0.0,0.0,16,0.00,,CLR,0.00,0.00,VWS V14.00,2015-05-29 07:42:00,
2015-05-29 00:47:00,76.8,27.2,29.74,WSW,258,0.0,0.0,16,0.00,,CLR,0.00,0.00,VWS V14.00,2015-05-29 07:47:00,
2015-05-29 00:52:00,76.3,28.3,29.74,WSW,258,0.0,0.0,17,0.00,,CLR,0.00,0.00,VWS V14.00,2015-05-29 07:52:00,
2015-05-29 00:57:00,76.1,26.7,29.74,WSW,258,0.0,0.0,16,0.00,,CLR,0.00,0.00,VWS V14.00,2015-05-29 07:57:00,
2015-05-29 01:02:00,75.8,27.9,29.74,WSW,258,0.0,0.0,17,0.00,,CLR,0.00,0.00,VWS V14.00,2015-05-29 08:02:00,
2015-05-29 01:07:00,77.4,24.5,29.74,WSW,258,0.0,0.0,14,0.00,,CLR,0.00,0.00,VWS V14.00,2015-05-29 08:07:00,
2015-05-29 01:12:00,77.2,26.0,29.74,WSW,258,0.0,0.0,15,0.00,,CLR,0.00,0.00,VWS V14.00,2015-05-29 08:12:00,
2015-05-29 01:17:00,77.6,24.7,29.74,WSW,258,0.0,0.0,14,0.00,,CLR,0.00,0.00,VWS V14.00,2015-05-29 08:17:00,
2015-05-29 01:22:00,78.5,23.6,29.74,WSW,258,0.0,0.0,13,0.00,,CLR,0.00,0.00,VWS V14.00,2015-05-29 08:22:00,
2015-05-29 01:27:00,76.5,25.5,29.74,WSW,258,0.0,0.0,15,0.00,,CLR,0.00,0.00,VWS V14.00,2015-05-29 08:27:00,
2015-05-29 01:32:00,76.3,25.3,29.74,WSW,258,0.0,0.0,15,0.00,,CLR,0.00,0.00,VWS V14.00,2015-05-29 08:32:00,
2015-05-29 01:37:00,77.6,26.3,29.74,WSW,258,0.0,0.0,15,0.00,,CLR,0.00,0.00,VWS V14.00,2015-05-29 08:37:00,
2015-05-29 01:42:00,77.2,24.4,29.74,WSW,258,0.0,0.0,14,0.00,,CLR,0.00,0.00,VWS V14.00,2015-05-29 08:42:00,
2015-05-29 01:47:00,77.4,24.5,29.74,WSW,258,0.0,0.0,14,0.00,,CLR,0.00,0.00,VWS V14.00,2015-05-29 08:47:00,
2015-05-29 01:52:00,77.6,24.7,29.74,WSW,258,0.0,0.0,14,0.00,,CLR,0.00,0.00,VWS V14.00,2015-05-29 08:52:00,
2015-05-29 01:57:00,77.6,24.7,29.74,WSW,246,0.0,0.0,14,0.00,,CLR,0.00,0.00,VWS V14.00,2015-05-29 08:57:00,
2015-05-29 02:02:00,77.9,24.9,29.74,WSW,246,2.0,3.0,14,0.00,,CLR,0.00,0.00,VWS V14.00,2015-05-29 09:02:00,
2015-05-29 02:07:00,77.7,24.8,29.74,WSW,246,0.0,0.0,14,0.00,,CLR,0.00,0.00,VWS V14.00,2015-05-29 09:07:00,
2015-05-29 02:12:00,78.8,22.0,29.74,WSW,246,2.0,3.0,12,0.00,,CLR,0.00,0.00,VWS V14.00,2015-05-29 09:12:00,
2015-05-29 02:17:00,78.8,19.9,29.74,WSW,246,0.0,3.0,11,0.00,,CLR,0.00,0.00,VWS V14.00,2015-05-29 09:17:00,
2015-05-29 02:22:00,77.7,23.0,29.74,WSW,246,0.0,0.0,13,0.00,,CLR,0.00,0.00,VWS V14.00,2015-05-29 09:22:00,
2015-05-29 02:27:00,77.6,22.9,29.74,WSW,246,0.0,0.0,13,0.00,,CLR,0.00,0.00,VWS V14.00,2015-05-29 09:27:00,
2015-05-29 02:32:00,77.4,22.8,29.74,WSW,246,0.0,0.0,13,0.00,,CLR,0.00,0.00,VWS V14.00,2015-05-29 09:32:00,
2015-05-29 02:37:00,77.0,22.4,29.74,WSW,246,0.0,0.0,13,0.00,,CLR,0.00,0.00,VWS V14.00,2015-05-29 09:37:00,
2015-05-29 02:42:00,76.3,26.9,29.74,WSW,246,0.0,0.0,16,0.00,,CLR,0.00,0.00,VWS V14.00,2015-05-29 09:42:00,
2015-05-29 02:47:00,75.8,26.5,29.74,WSW,246,0.0,0.0,16,0.00,,CLR,0.00,0.00,VWS V14.00,2015-05-29 09:47:00,
2015-05-29 02:52:00,76.1,23.5,29.73,WSW,246,0.0,2.0,14,0.00,,CLR,0.00,0.00,VWS V14.00,2015-05-29 09:52:00,
2015-05-29 02:57:00,77.0,22.4,29.73,WSW,246,1.0,2.0,13,0.00,,CLR,0.00,0.00,VWS V14.00,2015-05-29 09:57:00,
2015-05-29 03:02:00,76.8,22.3,29.73,WSW,246,0.0,0.0,13,0.00,,CLR,0.00,0.00,VWS V14.00,2015-05-29 10:02:00,
2015-05-29 03:07:00,76.0,23.4,29.74,WSW,246,0.0,0.0,14,0.00,,CLR,0.00,0.00,VWS V14.00,2015-05-29 10:07:00,
2015-05-29 03:12:00,74.7,24.0,29.74,WSW,246,0.0,0.0,15,0.00,,CLR,0.00,0.00,VWS V14.00,2015-05-29 10:12:00,
2015-05-29 03:17:00,73.2,28.5,29.74,WSW,246,0.0,0.0,19,0.00,,CLR,0.00,0.00,VWS V14.00,2015-05-29 10:17:00,
2015-05-29 03:22:00,71.8,32.0,29.74,WSW,246,0.0,0.0,23,0.00,,CLR,0.00,0.00,VWS V14.00,2015-05-29 10:22:00,
2015-05-29 03:27:00,70.3,34.8,29.74,WNW,283,0.0,0.0,27,0.00,,CLR,0.00,0.00,VWS V14.00,2015-05-29 10:27:00,
2015-05-29 03:32:00,70.8,35.2,29.74,WNW,283,0.0,0.0,27,0.00,,CLR,0.00,0.00,VWS V14.00,2015-05-29 10:32:00,
2015-05-29 03:37:00,70.8,35.2,29.75,WNW,283,0.0,0.0,27,0.00,,CLR,0.00,0.00,VWS V14.00,2015-05-29 10:37:00,
2015-05-29 03:42:00,70.3,35.7,29.75,WNW,299,2.0,2.0,28,0.00,,CLR,0.00,0.00,VWS V14.00,2015-05-29 10:42:00,
2015-05-29 03:47:00,70.4,34.9,29.75,WNW,299,0.0,0.0,27,0.00,,CLR,0.00,0.00,VWS V14.00,2015-05-29 10:47:00,
2015-05-29 03:52:00,70.9,32.3,29.75,WNW,299,0.0,0.0,24,0.00,,CLR,0.00,0.00,VWS V14.00,2015-05-29 10:52:00,
2015-05-29 03:57:00,72.3,33.5,29.75,NNW,334,2.0,2.0,24,0.00,,CLR,0.00,0.00,VWS V14.00,2015-05-29 10:57:00,
2015-05-29 04:02:00,72.1,33.3,29.75,North,350,0.0,0.0,24,0.00,,CLR,0.00,0.00,VWS V14.00,2015-05-29 11:02:00,
2015-05-29 04:07:00,71.1,33.5,29.75,NE,53,0.0,0.0,25,0.00,,CLR,0.00,0.00,VWS V14.00,2015-05-29 11:07:00,
2015-05-29 04:12:00,70.1,33.7,29.75,NE,53,0.0,0.0,26,0.00,,CLR,0.00,0.00,VWS V14.00,2015-05-29 11:12:00,
2015-05-29 04:17:00,69.6,33.2,29.75,NE,53,0.0,0.0,26,0.00,,CLR,0.00,0.00,VWS V14.00,2015-05-29 11:17:00,
2015-05-29 04:22:00,69.6,34.2,29.76,NE,53,0.0,0.0,27,0.00,,CLR,0.00,0.00,VWS V14.00,2015-05-29 11:22:00,
2015-05-29 04:27:00,68.1,32.9,29.76,NE,53,0.0,0.0,27,0.00,,CLR,0.00,0.00,VWS V14.00,2015-05-29 11:27:00,
2015-05-29 04:32:00,68.3,34.0,29.76,NE,54,0.0,0.0,28,0.00,,CLR,0.00,0.00,VWS V14.00,2015-05-29 11:32:00,
2015-05-29 04:37:00,68.9,33.6,29.76,NE,54,0.0,0.0,27,0.00,,CLR,0.00,0.00,VWS V14.00,2015-05-29 11:37:00,
2015-05-29 04:42:00,68.3,34.0,29.76,NE,54,0.0,0.0,28,0.00,,CLR,0.00,0.00,VWS V14.00,2015-05-29 11:42:00,
2015-05-29 04:47:00,68.1,32.9,29.76,NE,54,0.0,0.0,27,0.00,,CLR,0.00,0.00,VWS V14.00,2015-05-29 11:47:00,
2015-05-29 04:52:00,67.8,33.5,29.77,NE,54,0.0,0.0,28,0.00,,CLR,0.00,0.00,VWS V14.00,2015-05-29 11:52:00,
2015-05-29 04:57:00,68.4,33.1,29.77,NE,54,0.0,0.0,27,0.00,,CLR,0.00,0.00,VWS V14.00,2015-05-29 11:57:00,
2015-05-29 05:02:00,67.8,32.6,29.77,NE,54,0.0,0.0,27,0.00,,CLR,0.00,0.00,VWS V14.00,2015-05-29 12:02:00,
2015-05-29 05:07:00,66.6,32.5,29.77,NE,54,0.0,0.0,28,0.00,,CLR,0.00,0.00,VWS V14.00,2015-05-29 12:07:00,
2015-05-29 05:12:00,67.1,29.1,29.77,NE,54,0.0,0.0,24,0.00,,CLR,0.00,0.00,VWS V14.00,2015-05-29 12:12:00,
2015-05-29 05:17:00,68.8,30.6,29.77,NE,54,0.0,0.0,24,0.00,,CLR,0.00,0.00,VWS V14.00,2015-05-29 12:17:00,
2015-05-29 05:22:00,68.8,28.4,29.77,NE,54,0.0,0.0,22,0.00,,CLR,0.00,0.00,VWS V14.00,2015-05-29 12:22:00,
2015-05-29 05:27:00,67.1,32.0,29.77,NE,54,0.0,0.0,27,0.00,,CLR,0.00,5.00,VWS V14.00,2015-05-29 12:27:00,
2015-05-29 05:32:00,66.0,32.0,29.77,NE,54,0.0,0.0,28,0.00,,CLR,0.00,9.00,VWS V14.00,2015-05-29 12:32:00,
2015-05-29 05:37:00,65.8,32.7,29.78,NE,54,0.0,0.0,29,0.00,,CLR,0.00,12.00,VWS V14.00,2015-05-29 12:37:00,
2015-05-29 05:42:00,65.2,37.6,29.78,NE,54,0.0,0.0,36,0.00,,CLR,0.00,16.00,VWS V14.00,2015-05-29 12:42:00,
2015-05-29 05:47:00,64.3,37.5,29.78,NE,54,0.0,0.0,37,0.00,,CLR,0.00,19.00,VWS V14.00,2015-05-29 12:47:00,
2015-05-29 05:52:00,64.5,38.3,29.79,NE,54,0.0,0.0,38,0.00,,CLR,0.00,21.00,VWS V14.00,2015-05-29 12:52:00,
2015-05-29 05:57:00,65.5,37.9,29.79,NE,53,0.0,0.0,36,0.00,,CLR,0.00,23.00,VWS V14.00,2015-05-29 12:57:00,
2015-05-29 06:03:00,66.6,36.6,29.79,NE,56,2.0,4.0,33,0.00,,CLR,0.00,47.00,VWS V14.00,2015-05-29 13:03:00,
2015-05-29 06:08:00,66.4,37.2,29.79,NE,56,0.0,0.0,34,0.00,,CLR,0.00,37.00,VWS V14.00,2015-05-29 13:08:00,
2015-05-29 06:13:00,66.1,36.2,29.79,ENE,57,0.0,0.0,33,0.00,,CLR,0.00,37.00,VWS V14.00,2015-05-29 13:13:00,
2015-05-29 06:18:00,66.3,36.4,29.79,ENE,58,0.0,0.0,33,0.00,,CLR,0.00,28.00,VWS V14.00,2015-05-29 13:18:00,
2015-05-29 06:23:00,67.1,39.3,29.80,East,100,0.0,0.0,36,0.00,,CLR,0.00,30.00,VWS V14.00,2015-05-29 13:23:00,
2015-05-29 06:28:00,67.4,38.8,29.80,East,100,0.0,0.0,35,0.00,,CLR,0.00,30.00,VWS V14.00,2015-05-29 13:28:00,
2015-05-29 06:33:00,67.9,39.3,29.80,East,100,0.0,0.0,35,0.00,,CLR,0.00,32.00,VWS V14.00,2015-05-29 13:33:00,
2015-05-29 06:38:00,68.9,40.2,29.80,ESE,102,0.0,0.0,35,0.00,,CLR,0.00,32.00,VWS V14.00,2015-05-29 13:38:00,
2015-05-29 06:43:00,69.1,40.3,29.80,ESE,102,0.0,0.0,35,0.00,,CLR,0.00,33.00,VWS V14.00,2015-05-29 13:43:00,
2015-05-29 06:48:00,69.6,40.8,29.80,ESE,102,0.0,0.0,35,0.00,,CLR,0.00,35.00,VWS V14.00,2015-05-29 13:48:00,
2015-05-29 06:53:00,69.6,40.8,29.81,East,99,0.0,0.0,35,0.00,,CLR,0.00,37.00,VWS V14.00,2015-05-29 13:53:00,
2015-05-29 06:58:00,70.1,41.2,29.81,East,99,0.0,0.0,35,0.00,,CLR,0.00,46.00,VWS V14.00,2015-05-29 13:58:00,
2015-05-29 07:03:00,70.9,41.9,29.81,East,99,0.0,0.0,35,0.00,,CLR,0.00,95.00,VWS V14.00,2015-05-29 14:03:00,
2015-05-29 07:08:00,72.0,42.9,29.81,East,98,0.0,0.0,35,0.00,,CLR,0.00,53.00,VWS V14.00,2015-05-29 14:08:00,
2015-05-29 07:13:00,73.2,40.8,29.81,East,98,0.0,0.0,31,0.00,,CLR,0.00,200.00,VWS V14.00,2015-05-29 14:13:00,
2015-05-29 07:18:00,74.6,40.3,29.81,East,100,0.0,0.0,29,0.00,,CLR,0.00,158.00,VWS V14.00,2015-05-29 14:18:00,
2015-05-29 07:23:00,75.4,40.1,29.81,East,100,0.0,0.0,28,0.00,,CLR,0.00,278.00,VWS V14.00,2015-05-29 14:23:00,
2015-05-29 07:28:00,75.8,43.0,29.81,East,100,0.0,0.0,31,0.00,,CLR,0.00,373.00,VWS V14.00,2015-05-29 14:28:00,
2015-05-29 07:33:00,76.3,42.6,29.81,East,96,0.0,0.0,30,0.00,,CLR,0.00,388.00,VWS V14.00,2015-05-29 14:33:00,
2015-05-29 07:38:00,77.0,41.4,29.81,East,96,0.0,0.0,28,0.00,,CLR,0.00,404.00,VWS V14.00,2015-05-29 14:38:00,
2015-05-29 07:43:00,78.5,37.7,29.81,East,95,0.0,0.0,23,0.00,,CLR,0.00,420.00,VWS V14.00,2015-05-29 14:43:00,
2015-05-29 07:48:00,79.2,34.7,29.81,East,96,0.0,0.0,20,0.00,,CLR,0.00,439.00,VWS V14.00,2015-05-29 14:48:00,
2015-05-29 07:53:00,80.1,35.5,29.81,SSE,166,0.0,5.0,20,0.00,,CLR,0.00,455.00,VWS V14.00,2015-05-29 14:53:00,
2015-05-29 07:58:00,80.1,34.2,29.81,South,179,1.0,4.0,19,0.00,,CLR,0.00,475.00,VWS V14.00,2015-05-29 14:58:00,
2015-05-29 08:03:00,80.7,33.3,29.81,South,179,0.0,1.0,18,0.00,,CLR,0.00,490.00,VWS V14.00,2015-05-29 15:03:00,
2015-05-29 08:08:00,81.1,33.6,29.81,South,186,0.0,2.0,18,0.00,,CLR,0.00,503.00,VWS V14.00,2015-05-29 15:08:00,
2015-05-29 08:13:00,80.7,33.3,29.81,SW,229,2.0,9.0,18,0.00,,CLR,0.00,520.00,VWS V14.00,2015-05-29 15:13:00,
2015-05-29 08:18:00,81.4,33.9,29.81,SSW,210,6.0,6.0,18,0.00,,CLR,0.00,536.00,VWS V14.00,2015-05-29 15:18:00,
2015-05-29 08:23:00,81.6,32.6,29.82,SSW,213,8.0,11.0,17,0.00,,CLR,0.00,554.00,VWS V14.00,2015-05-29 15:23:00,
2015-05-29 08:28:00,81.8,32.8,29.82,SSW,198,5.0,12.0,17,0.00,,CLR,0.00,570.00,VWS V14.00,2015-05-29 15:28:00,
2015-05-29 08:33:00,82.0,34.4,29.82,SW,229,7.0,7.0,18,0.00,,CLR,0.00,585.00,VWS V14.00,2015-05-29 15:33:00,
2015-05-29 08:38:00,82.6,33.4,29.82,SW,223,0.0,6.0,17,0.00,,CLR,0.00,599.00,VWS V14.00,2015-05-29 15:38:00,
2015-05-29 08:43:00,83.2,35.3,29.82,SSW,210,3.0,9.0,18,0.00,,CLR,0.00,613.00,VWS V14.00,2015-05-29 15:43:00,
2015-05-29 08:48:00,83.0,33.7,29.82,WSW,240,10.0,10.0,17,0.00,,CLR,0.00,628.00,VWS V14.00,2015-05-29 15:48:00,
2015-05-29 08:53:00,83.0,35.2,29.82,SSW,206,8.0,10.0,18,0.00,,CLR,0.00,642.00,VWS V14.00,2015-05-29 15:53:00,
2015-05-29 08:58:00,83.8,35.8,29.82,WSW,237,2.0,6.0,18,0.00,,CLR,0.00,657.00,VWS V14.00,2015-05-29 15:58:00,
2015-05-29 09:03:00,84.7,35.1,29.82,SW,226,5.0,9.0,17,0.00,,CLR,0.00,671.00,VWS V14.00,2015-05-29 16:03:00,
2015-05-29 09:08:00,84.5,35.0,29.82,SW,221,7.0,7.0,17,0.00,,CLR,0.00,687.00,VWS V14.00,2015-05-29 16:08:00,
2015-05-29 09:13:00,85.1,35.4,29.82,SW,231,2.0,7.0,17,0.00,,CLR,0.00,698.00,VWS V14.00,2015-05-29 16:13:00,
2015-05-29 09:18:00,85.5,35.8,29.82,SSW,196,5.0,7.0,17,0.00,,CLR,0.00,714.00,VWS V14.00,2015-05-29 16:18:00,
2015-05-29 09:23:00,85.3,35.6,29.82,SSW,194,0.0,6.0,17,0.00,,CLR,0.00,726.00,VWS V14.00,2015-05-29 16:23:00,
2015-05-29 09:28:00,86.5,36.6,29.82,South,181,1.0,7.0,17,0.00,,CLR,0.00,738.00,VWS V14.00,2015-05-29 16:28:00,
2015-05-29 09:33:00,86.1,34.7,29.82,SSW,194,6.0,6.0,16,0.00,,CLR,0.00,756.00,VWS V14.00,2015-05-29 16:33:00,
2015-05-29 09:38:00,86.3,34.9,29.82,SW,214,0.0,5.0,16,0.00,,CLR,0.00,765.00,VWS V14.00,2015-05-29 16:38:00,
2015-05-29 09:43:00,86.3,34.9,29.82,SW,215,6.0,6.0,16,0.00,,CLR,0.00,779.00,VWS V14.00,2015-05-29 16:43:00,
2015-05-29 09:48:00,86.7,35.2,29.82,SSW,208,3.0,4.0,16,0.00,,CLR,0.00,786.00,VWS V14.00,2015-05-29 16:48:00,
2015-05-29 09:53:00,87.8,34.5,29.82,West,265,1.0,2.0,15,0.00,,CLR,0.00,800.00,VWS V14.00,2015-05-29 16:53:00,
2015-05-29 09:58:00,87.6,34.3,29.82,WSW,239,2.0,5.0,15,0.00,,CLR,0.00,809.00,VWS V14.00,2015-05-29 16:58:00,
2015-05-29 10:03:00,87.8,34.5,29.82,SW,235,0.0,3.0,15,0.00,,CLR,0.00,821.00,VWS V14.00,2015-05-29 17:03:00,
2015-05-29 10:08:00,88.4,33.2,29.82,SSW,202,5.0,7.0,14,0.00,,CLR,0.00,835.00,VWS V14.00,2015-05-29 17:08:00,
2015-05-29 10:13:00,88.0,32.9,29.82,WSW,253,0.0,3.0,14,0.00,,CLR,0.00,844.00,VWS V14.00,2015-05-29 17:13:00,
2015-05-29 10:18:00,88.8,31.7,29.82,SW,219,2.0,7.0,13,0.00,,CLR,0.00,858.00,VWS V14.00,2015-05-29 17:18:00,
2015-05-29 10:23:00,89.7,32.4,29.82,WSW,239,0.0,6.0,13,0.00,,CLR,0.00,865.00,VWS V14.00,2015-05-29 17:23:00,
2015-05-29 10:28:00,91.2,31.6,29.82,ESE,123,2.0,3.0,12,0.00,,CLR,0.00,874.00,VWS V14.00,2015-05-29 17:28:00,
2015-05-29 10:33:00,91.2,31.6,29.82,West,261,3.0,6.0,12,0.00,,CLR,0.00,882.00,VWS V14.00,2015-05-29 17:33:00,
2015-05-29 10:38:00,91.4,33.7,29.82,West,270,0.0,6.0,13,0.00,,CLR,0.00,886.00,VWS V14.00,2015-05-29 17:38:00,
2015-05-29 10:43:00,91.2,31.6,29.82,WNW,285,0.0,0.0,12,0.00,,CLR,0.00,900.00,VWS V14.00,2015-05-29 17:43:00,
2015-05-29 10:48:00,92.1,32.2,29.82,WSW,248,11.0,11.0,12,0.00,,CLR,0.00,907.00,VWS V14.00,2015-05-29 17:48:00,
2015-05-29 10:53:00,91.8,32.0,29.82,West,265,0.0,3.0,12,0.00,,CLR,0.00,912.00,VWS V14.00,2015-05-29 17:53:00,
2015-05-29 10:58:00,91.6,31.9,29.82,West,279,4.0,5.0,12,0.00,,CLR,0.00,919.00,VWS V14.00,2015-05-29 17:58:00,
2015-05-29 11:03:00,92.1,32.2,29.82,WNW,296,3.0,6.0,12,0.00,,CLR,0.00,925.00,VWS V14.00,2015-05-29 18:03:00,
2015-05-29 11:08:00,92.1,32.2,29.82,WSW,241,0.0,4.0,12,0.00,,CLR,0.00,930.00,VWS V14.00,2015-05-29 18:08:00,
2015-05-29 11:13:00,92.5,30.4,29.82,WSW,252,8.0,12.0,11,0.00,,CLR,0.00,937.00,VWS V14.00,2015-05-29 18:13:00,
2015-05-29 11:18:00,92.5,30.4,29.82,WSW,237,0.0,11.0,11,0.00,,CLR,0.00,942.00,VWS V14.00,2015-05-29 18:18:00,
2015-05-29 11:23:00,92.7,30.6,29.82,WNW,287,6.0,10.0,11,0.00,,CLR,0.00,951.00,VWS V14.00,2015-05-29 18:23:00,
2015-05-29 11:28:00,93.4,31.1,29.82,WNW,297,0.0,7.0,11,0.00,,CLR,0.00,958.00,VWS V14.00,2015-05-29 18:28:00,
2015-05-29 11:33:00,93.8,31.4,29.82,West,280,3.0,6.0,11,0.00,,CLR,0.00,960.00,VWS V14.00,2015-05-29 18:33:00,
2015-05-29 11:38:00,93.4,31.1,29.81,WNW,283,1.0,6.0,11,0.00,,CLR,0.00,967.00,VWS V14.00,2015-05-29 18:38:00,
2015-05-29 11:43:00,94.3,29.4,29.81,West,270,12.0,12.0,10,0.00,,CLR,0.00,972.00,VWS V14.00,2015-05-29 18:43:00,
2015-05-29 11:48:00,95.1,32.4,29.81,SSE,156,4.0,4.0,11,0.00,,CLR,0.00,972.00,VWS V14.00,2015-05-29 18:48:00,
2015-05-29 11:53:00,95.9,30.6,29.80,WNW,291,6.0,7.0,10,0.00,,CLR,0.00,979.00,VWS V14.00,2015-05-29 18:53:00,
2015-05-29 11:58:00,95.1,30.0,29.80,SW,233,0.0,4.0,10,0.00,,CLR,0.00,979.00,VWS V14.00,2015-05-29 18:58:00,
2015-05-29 12:02:00,95.9,30.6,29.80,SSE,150,0.0,2.0,10,0.00,,CLR,0.00,981.00,VWS V14.00,2015-05-29 19:02:00,
2015-05-29 12:08:00,94.9,29.9,29.79,SSW,192,7.0,9.0,10,0.00,,CLR,0.00,988.00,VWS V14.00,2015-05-29 19:08:00,
2015-05-29 12:12:00,95.4,30.3,29.79,WSW,238,0.0,4.0,10,0.00,,CLR,0.00,990.00,VWS V14.00,2015-05-29 19:12:00,
2015-05-29 12:17:00,97.1,29.0,29.79,WNW,285,0.0,0.0,9,0.00,,CLR,0.00,990.00,VWS V14.00,2015-05-29 19:17:00,
2015-05-29 12:22:00,96.6,28.6,29.79,WNW,285,12.0,12.0,9,0.00,,CLR,0.00,988.00,VWS V14.00,2015-05-29 19:22:00,
2015-05-29 12:28:00,96.1,28.2,29.79,SW,227,9.0,14.0,9,0.00,,CLR,0.00,997.00,VWS V14.00,2015-05-29 19:28:00,
2015-05-29 12:33:00,96.6,28.6,29.79,SE,145,4.0,5.0,9,0.00,,CLR,0.00,993.00,VWS V14.00,2015-05-29 19:33:00,
2015-05-29 12:38:00,96.8,28.7,29.79,SW,233,0.0,4.0,9,0.00,,CLR,0.00,988.00,VWS V14.00,2015-05-29 19:38:00,
2015-05-29 12:43:00,96.6,28.6,29.79,WNW,295,9.0,12.0,9,0.00,,CLR,0.00,991.00,VWS V14.00,2015-05-29 19:43:00,
2015-05-29 12:48:00,96.6,28.6,29.79,West,279,10.0,12.0,9,0.00,,CLR,0.00,988.00,VWS V14.00,2015-05-29 19:48:00,
2015-05-29 12:53:00,97.1,26.1,29.78,WSW,237,2.0,9.0,8,0.00,,CLR,0.00,988.00,VWS V14.00,2015-05-29 19:53:00,
2015-05-29 12:58:00,97.3,26.2,29.78,SW,223,7.0,10.0,8,0.00,,CLR,0.00,988.00,VWS V14.00,2015-05-29 19:58:00,
2015-05-29 13:03:00,98.0,26.8,29.78,West,279,5.0,7.0,8,0.00,,CLR,0.00,986.00,VWS V14.00,2015-05-29 20:03:00,
2015-05-29 13:08:00,97.1,26.1,29.77,West,265,7.0,12.0,8,0.00,,CLR,0.00,986.00,VWS V14.00,2015-05-29 20:08:00,
2015-05-29 13:13:00,99.2,27.6,29.77,West,259,4.0,6.0,8,0.00,,CLR,0.00,983.00,VWS V14.00,2015-05-29 20:13:00,
2015-05-29 13:18:00,97.5,26.4,29.77,West,275,2.0,9.0,8,0.00,,CLR,0.00,981.00,VWS V14.00,2015-05-29 20:18:00,
2015-05-29 13:23:00,98.2,26.9,29.76,SW,233,6.0,9.0,8,0.00,,CLR,0.00,977.00,VWS V14.00,2015-05-29 20:23:00,
2015-05-29 13:28:00,98.2,23.7,29.76,West,260,7.0,13.0,7,0.00,,CLR,0.00,969.00,VWS V14.00,2015-05-29 20:28:00,
2015-05-29 13:33:00,98.5,27.1,29.76,WSW,243,3.0,10.0,8,0.00,,CLR,0.00,969.00,VWS V14.00,2015-05-29 20:33:00,
2015-05-29 13:38:00,98.7,24.1,29.75,West,279,0.0,1.0,7,0.00,,CLR,0.00,962.00,VWS V14.00,2015-05-29 20:38:00,
2015-05-29 13:43:00,99.7,28.0,29.75,South,180,0.0,10.0,8,0.00,,CLR,0.00,954.00,VWS V14.00,2015-05-29 20:43:00,
2015-05-29 13:48:00,101.0,25.7,29.75,SE,135,4.0,5.0,7,0.00,,CLR,0.00,949.00,VWS V14.00,2015-05-29 20:48:00,
2015-05-29 13:53:00,100.4,25.3,29.75,SE,130,0.0,0.0,7,0.00,,CLR,0.00,942.00,VWS V14.00,2015-05-29 20:53:00,
2015-05-29 13:58:00,100.2,25.2,29.75,SW,231,0.0,11.0,7,0.00,,CLR,0.00,933.00,VWS V14.00,2015-05-29 20:58:00,
2015-05-29 14:03:00,101.5,26.1,29.75,West,279,4.0,16.0,7,0.00,,CLR,0.00,925.00,VWS V14.00,2015-05-29 21:03:00,
2015-05-29 14:08:00,100.7,25.5,29.74,WSW,252,0.0,7.0,7,0.00,,CLR,0.00,919.00,VWS V14.00,2015-05-29 21:08:00,
2015-05-29 14:13:00,99.9,24.9,29.74,WSW,251,0.0,6.0,7,0.00,,CLR,0.00,914.00,VWS V14.00,2015-05-29 21:13:00,
2015-05-29 14:18:00,100.7,25.5,29.74,West,270,0.0,2.0,7,0.00,,CLR,0.00,911.00,VWS V14.00,2015-05-29 21:18:00,
2015-05-29 14:23:00,101.0,25.7,29.73,WNW,293,4.0,11.0,7,0.00,,CLR,0.00,898.00,VWS V14.00,2015-05-29 21:23:00,
2015-05-29 14:28:00,100.4,25.3,29.73,NNW,332,1.0,6.0,7,0.00,,CLR,0.00,884.00,VWS V14.00,2015-05-29 21:28:00,
2015-05-29 14:33:00,100.4,25.3,29.73,NNE,25,0.0,4.0,7,0.00,,CLR,0.00,875.00,VWS V14.00,2015-05-29 21:33:00,
2015-05-29 14:38:00,100.4,25.3,29.73,WSW,242,2.0,2.0,7,0.00,,CLR,0.00,868.00,VWS V14.00,2015-05-29 21:38:00,
2015-05-29 14:43:00,101.0,25.7,29.73,WNW,296,7.0,7.0,7,0.00,,CLR,0.00,861.00,VWS V14.00,2015-05-29 21:43:00,
2015-05-29 14:48:00,99.7,21.1,29.73,SW,229,3.0,15.0,6,0.00,,CLR,0.00,851.00,VWS V14.00,2015-05-29 21:48:00,
2015-05-29 14:53:00,100.4,25.3,29.73,WNW,283,11.0,14.0,7,0.00,,CLR,0.00,838.00,VWS V14.00,2015-05-29 21:53:00,
2015-05-29 14:58:00,99.7,24.8,29.73,WNW,282,0.0,3.0,7,0.00,,CLR,0.00,831.00,VWS V14.00,2015-05-29 21:58:00,
2015-05-29 15:03:00,99.9,21.3,29.73,WSW,238,2.0,10.0,6,0.00,,CLR,0.00,823.00,VWS V14.00,2015-05-29 22:03:00,
2015-05-29 15:08:00,99.7,21.1,29.72,North,356,2.0,4.0,6,0.00,,CLR,0.00,810.00,VWS V14.00,2015-05-29 22:08:00,